sensor_id;sensor_type;location;lat;lon;timestamp;temperature;humidity
30467;DHT22;17258;52.560;13.046;2023-05-14T11:12:43;26.70;31.80
30467;DHT22;17258;52.560;13.046;2023-05-14T11:22:47;26.30;32.20
30467;DHT22;17258;52.560;13.046;2023-05-14T11:32:50;26.10;32.50
30467;DHT22;17258;52.560;13.046;2023-05-14T11:42:51;25.80;32.60
30467;DHT22;17258;52.560;13.046;2023-05-14T11:52:55;25.70;32.80
30467;DHT22;17258;52.560;13.046;2023-05-14T12:02:56;25.70;32.90
30467;DHT22;17258;52.560;13.046;2023-05-14T12:12:57;25.70;33.00
30467;DHT22;17258;52.560;13.046;2023-05-14T12:23:01;25.70;33.10
30467;DHT22;17258;52.560;13.046;2023-05-14T12:33:01;25.70;33.00
30467;DHT22;17258;52.560;13.046;2023-05-14T12:43:02;25.70;32.90
30467;DHT22;17258;52.560;13.046;2023-05-14T12:53:03;25.80;32.90
30467;DHT22;17258;52.560;13.046;2023-05-14T13:03:10;25.90;32.80
30467;DHT22;17258;52.560;13.046;2023-05-14T13:13:10;26.00;32.70
30467;DHT22;17258;52.560;13.046;2023-05-14T13:23:20;26.10;32.80
30467;DHT22;17258;52.560;13.046;2023-05-14T13:33:23;26.40;33.00
30467;DHT22;17258;52.560;13.046;2023-05-14T13:43:24;26.80;32.50
30467;DHT22;17258;52.560;13.046;2023-05-14T13:53:34;27.10;32.40
30467;DHT22;17258;52.560;13.046;2023-05-14T14:03:37;27.30;31.80
30467;DHT22;17258;52.560;13.046;2023-05-14T14:13:41;27.40;31.80
30467;DHT22;17258;52.560;13.046;2023-05-14T14:23:47;27.50;31.70
30467;DHT22;17258;52.560;13.046;2023-05-14T14:33:48;27.60;31.70
30467;DHT22;17258;52.560;13.046;2023-05-14T14:43:52;27.60;31.70
30467;DHT22;17258;52.560;13.046;2023-05-14T14:53:52;27.50;31.40
30467;DHT22;17258;52.560;13.046;2023-05-14T15:04:04;27.60;31.20
30467;DHT22;17258;52.560;13.046;2023-05-14T15:14:07;27.60;31.40
30467;DHT22;17258;52.560;13.046;2023-05-14T15:24:13;27.60;31.40
30467;DHT22;17258;52.560;13.046;2023-05-14T15:34:14;27.60;31.10
30467;DHT22;17258;52.560;13.046;2023-05-14T15:44:15;27.50;31.00
30467;DHT22;17258;52.560;13.046;2023-05-14T15:54:21;27.40;31.30
30467;DHT22;17258;52.560;13.046;2023-05-14T16:04:28;27.20;31.00
30467;DHT22;17258;52.560;13.046;2023-05-14T16:14:37;27.00;31.30
30467;DHT22;17258;52.560;13.046;2023-05-14T16:24:38;26.70;31.10
30467;DHT22;17258;52.560;13.046;2023-05-14T16:34:38;26.50;30.90
30467;DHT22;17258;52.560;13.046;2023-05-14T16:44:51;26.30;31.00
30467;DHT22;17258;52.560;13.046;2023-05-14T16:54:52;26.20;30.90
30467;DHT22;17258;52.560;13.046;2023-05-14T17:04:55;26.10;30.90
30467;DHT22;17258;52.560;13.046;2023-05-14T17:14:59;26.00;30.90
30467;DHT22;17258;52.560;13.046;2023-05-14T17:25:03;25.90;30.80
30467;DHT22;17258;52.560;13.046;2023-05-14T17:35:08;25.80;30.70
30467;DHT22;17258;52.560;13.046;2023-05-14T17:45:09;25.60;30.70
30467;DHT22;17258;52.560;13.046;2023-05-14T17:55:11;25.40;30.70
30467;DHT22;17258;52.560;13.046;2023-05-14T18:05:19;25.20;30.90
30467;DHT22;17258;52.560;13.046;2023-05-14T18:15:20;24.90;31.10
30467;DHT22;17258;52.560;13.046;2023-05-14T18:25:21;24.80;31.40
30467;DHT22;17258;52.560;13.046;2023-05-14T18:35:27;24.50;31.40
30467;DHT22;17258;52.560;13.046;2023-05-14T18:45:29;24.20;31.70
30467;DHT22;17258;52.560;13.046;2023-05-14T18:55:30;24.00;31.90
30467;DHT22;17258;52.560;13.046;2023-05-14T19:05:34;23.80;32.10
30467;DHT22;17258;52.560;13.046;2023-05-14T19:15:34;23.60;32.40
30467;DHT22;17258;52.560;13.046;2023-05-14T19:25:36;23.40;32.60
30467;DHT22;17258;52.560;13.046;2023-05-14T19:35:37;23.20;32.80
30467;DHT22;17258;52.560;13.046;2023-05-14T19:45:37;23.00;33.00
30467;DHT22;17258;52.560;13.046;2023-05-14T19:55:38;22.80;33.20
30467;DHT22;17258;52.560;13.046;2023-05-14T20:05:39;22.60;33.40
30467;DHT22;17258;52.560;13.046;2023-05-14T20:15:39;22.40;33.60
30467;DHT22;17258;52.560;13.046;2023-05-14T20:25:40;22.20;33.80
30467;DHT22;17258;52.560;13.046;2023-05-14T20:35:42;22.00;34.00
30467;DHT22;17258;52.560;13.046;2023-05-14T20:45:46;21.80;34.80
30467;DHT22;17258;52.560;13.046;2023-05-14T20:55:49;21.60;34.40
30467;DHT22;17258;52.560;13.046;2023-05-14T21:05:51;21.40;34.60
30467;DHT22;17258;52.560;13.046;2023-05-14T21:15:51;21.10;34.80
30467;DHT22;17258;52.560;13.046;2023-05-14T21:25:52;20.80;34.90
30467;DHT22;17258;52.560;13.046;2023-05-14T21:35:54;20.60;35.10
30467;DHT22;17258;52.560;13.046;2023-05-14T21:45:55;20.30;35.40
30467;DHT22;17258;52.560;13.046;2023-05-14T21:55:55;20.00;35.60
30467;DHT22;17258;52.560;13.046;2023-05-14T22:05:56;19.70;35.90
30467;DHT22;17258;52.560;13.046;2023-05-14T22:15:57;19.50;36.20
30467;DHT22;17258;52.560;13.046;2023-05-14T22:25:58;19.20;36.40
30467;DHT22;17258;52.560;13.046;2023-05-14T22:35:59;19.00;36.60
30467;DHT22;17258;52.560;13.046;2023-05-14T22:45:59;18.80;36.80
30467;DHT22;17258;52.560;13.046;2023-05-14T22:56:00;18.50;37.00
30467;DHT22;17258;52.560;13.046;2023-05-14T23:06:01;18.30;37.30
30467;DHT22;17258;52.560;13.046;2023-05-14T23:16:02;18.10;37.50
30467;DHT22;17258;52.560;13.046;2023-05-14T23:26:03;17.90;37.80
30467;DHT22;17258;52.560;13.046;2023-05-14T23:36:04;17.60;38.00
30467;DHT22;17258;52.560;13.046;2023-05-14T23:46:09;17.50;38.20
30467;DHT22;17258;52.560;13.046;2023-05-14T23:56:10;17.30;39.20
